Wetterdaten: aktuell Mittwoch, 27.05.2020 15:00
Datum Zeit Temp. A. Feuchte A. Luftdruck Regen Wind Richtung Richtung Sonnenschein Solar Taupunkt Windchill Windben
27.05.2020 15:00 21,7 C 42 % 1030,5 hPa 0,0 l/m 3,2 km/h (1 Bft) SW 221 5 min 887 W/m 8,2 C 21,7 C 8,0 km/h (2 Bft)
27.05.2020 14:55 21,0 C 43 % 1030,5 hPa 0,0 l/m 3,6 km/h (1 Bft) SO 138 5 min 860 W/m 7,9 C 21,0 C 9,7 km/h (2 Bft)
27.05.2020 14:50 21,3 C 41 % 1030,7 hPa 0,0 l/m 3,8 km/h (1 Bft) SW 229 5 min 861 W/m 7,5 C 21,3 C 12,9 km/h (3 Bft)
27.05.2020 14:45 21,7 C 44 % 1030,7 hPa 0,0 l/m 2,0 km/h (1 Bft) NW 310 5 min 860 W/m 8,9 C 21,7 C 4,8 km/h (1 Bft)
27.05.2020 14:40 22,1 C 43 % 1030,8 hPa 0,0 l/m 2,9 km/h (1 Bft) N 360 4 min 861 W/m 8,9 C 22,1 C 8,0 km/h (2 Bft)
27.05.2020 14:36 21,6 C 44 % 1030,8 hPa 0,0 l/m 3,1 km/h (1 Bft) N-NO 13 6 min 859 W/m 8,8 C 21,6 C 8,0 km/h (2 Bft)
27.05.2020 14:30 20,8 C 45 % 1030,8 hPa 0,0 l/m 2,2 km/h (1 Bft) S-SW 198 5 min 846 W/m 8,4 C 20,8 C 6,4 km/h (2 Bft)
27.05.2020 14:25 21,3 C 41 % 1031,0 hPa 0,0 l/m 2,6 km/h (1 Bft) W-SW 244 5 min 863 W/m 7,5 C 21,3 C 6,4 km/h (2 Bft)
27.05.2020 14:20 21,0 C 39 % 1030,9 hPa 0,0 l/m 2,3 km/h (1 Bft) NW 326 5 min 875 W/m 6,5 C 21,0 C 4,8 km/h (1 Bft)
27.05.2020 14:15 20,7 C 44 % 1031,0 hPa 0,0 l/m 2,0 km/h (1 Bft) N-NO 28 5 min 890 W/m 8,0 C 20,7 C 6,4 km/h (2 Bft)
27.05.2020 14:10 20,2 C 44 % 1031,1 hPa 0,0 l/m 2,8 km/h (1 Bft) W-SW 248 5 min 431 W/m 7,6 C 20,2 C 6,4 km/h (2 Bft)
27.05.2020 14:05 21,1 C 43 % 1031,2 hPa 0,0 l/m 2,7 km/h (1 Bft) NW 324 5 min 457 W/m 8,0 C 21,1 C 9,7 km/h (2 Bft)
27.05.2020 14:00 21,9 C 46 % 1031,1 hPa 0,0 l/m 1,3 km/h (1 Bft) N-NW 336 5 min 922 W/m 9,7 C 21,9 C 6,4 km/h (2 Bft)
27.05.2020 13:55 21,3 C 47 % 1031,2 hPa 0,0 l/m 3,1 km/h (1 Bft) N-NW 333 5 min 932 W/m 9,5 C 21,3 C 8,0 km/h (2 Bft)
27.05.2020 13:50 21,8 C 42 % 1031,2 hPa 0,0 l/m 2,5 km/h (1 Bft) W 273 5 min 921 W/m 8,3 C 21,8 C 6,4 km/h (2 Bft)
27.05.2020 13:45 21,6 C 47 % 1031,2 hPa 0,0 l/m 2,8 km/h (1 Bft) N 5 5 min 915 W/m 9,8 C 21,6 C 16,1 km/h (3 Bft)
27.05.2020 13:40 20,8 C 50 % 1031,3 hPa 0,0 l/m 1,9 km/h (1 Bft) S-SW 198 5 min 907 W/m 10,0 C 20,8 C 4,8 km/h (1 Bft)
27.05.2020 13:35 20,7 C 45 % 1031,3 hPa 0,0 l/m 2,5 km/h (1 Bft) NW 326 5 min 900 W/m 8,3 C 20,7 C 6,4 km/h (2 Bft)
27.05.2020 13:30 20,8 C 48 % 1031,4 hPa 0,0 l/m 2,9 km/h (1 Bft) SW 221 5 min 898 W/m 9,4 C 20,8 C 6,4 km/h (2 Bft)
27.05.2020 13:25 20,9 C 45 % 1031,5 hPa 0,0 l/m 3,0 km/h (1 Bft) N-NO 22 5 min 875 W/m 8,5 C 20,9 C 9,7 km/h (2 Bft)
27.05.2020 13:20 20,8 C 45 % 1031,5 hPa 0,0 l/m 3,2 km/h (1 Bft) W 276 5 min 899 W/m 8,4 C 20,8 C 8,0 km/h (2 Bft)
_ Min-Zeit 04:55 14:20 14:55 - 16:15 - - - - 04:30 04:55 16:15
Minimum _ 8,4 C 39 % 1030,5 hPa - 0,0 km/h (0 Bft) - - - - 6,5 C 8,4 C 0,0 km/h (0 Bft)
_ Max-Zeit 14:40 05:05 16:00 16:00 14:50 - - 17:06 13:55 12:10 14:40 13:45
Maximum _ 22,1 C 89 % 1034,1 hPa 0,0 l/m 3,8 km/h
SW (1 Bft)
- - 6 min 932 W/m 10,9 C 22,1 C 16,1 km/h
NW (3 Bft)
Durchschnitt _ 15,0 C 66 % 1033,0 hPa #0,0 l/m 1,3 km/h (1 Bft) O-SO - #5:20 h 432 W/m 8,4 C 15,0 C 3,6 km/h (1 Bft)